Terminal Aerodrome Forecast
Issued by NWS Dallas/Fort Worth, TX

Home | Current Version | Previous Version | Text Only | Print | Product List | Glossary On
Versions: 1 2 3 4 5 6 7 8 9 10 11 12 13 14 15 16 17 18 19 20 21 22 23 24 25 26 27 28 29
000
FTUS44 KFWD 220300 AAB
TAFACT
TAF AMD
KACT 220302Z 2203/2224 15013KT 6SM -SHRA BR OVC007
     FM220600 15013KT 4SM BR OVC005
     FM221700 15014KT P6SM VCTS OVC010CB
     FM222100 VRB15G25KT 2SM +TSRA OVC010CB=

USA.gov is the U.S. government's official web portal to all federal, state and local government web resources and services.